sensor_id;sensor_type;location;lat;lon;timestamp;pressure;altitude;pressure_sealevel;temperature;humidity
76766;BME280;65707;52.362;6.588;2023-02-21T00:02:35;101927.97;;;10.53;80.38
76766;BME280;65707;52.362;6.588;2023-02-21T00:05:20;101916.13;;;10.55;80.89
76766;BME280;65707;52.362;6.588;2023-02-21T00:08:04;101919.09;;;10.52;80.89
76766;BME280;65707;52.362;6.588;2023-02-21T00:10:49;101912.16;;;10.59;80.86
76766;BME280;65707;52.362;6.588;2023-02-21T00:13:36;101918.38;;;10.60;80.65
76766;BME280;65707;52.362;6.588;2023-02-21T00:16:21;101906.22;;;10.56;80.61
76766;BME280;65707;52.362;6.588;2023-02-21T00:19:06;101919.34;;;10.59;80.52
76766;BME280;65707;52.362;6.588;2023-02-21T00:21:51;101913.16;;;10.49;81.06
76766;BME280;65707;52.362;6.588;2023-02-21T00:24:35;101918.38;;;10.60;80.51
76766;BME280;65707;52.362;6.588;2023-02-21T00:27:20;101910.63;;;10.66;80.41
76766;BME280;65707;52.362;6.588;2023-02-21T00:30:07;101909.31;;;10.70;80.19
76766;BME280;65707;52.362;6.588;2023-02-21T00:32:52;101909.03;;;10.64;80.23
76766;BME280;65707;52.362;6.588;2023-02-21T00:35:37;101916.00;;;10.66;80.50
76766;BME280;65707;52.362;6.588;2023-02-21T00:38:21;101908.91;;;10.65;80.62
76766;BME280;65707;52.362;6.588;2023-02-21T00:41:06;101896.91;;;10.60;80.35
76766;BME280;65707;52.362;6.588;2023-02-21T00:43:51;101908.91;;;10.65;80.56
76766;BME280;65707;52.362;6.588;2023-02-21T00:46:37;101890.13;;;10.56;80.56
76766;BME280;65707;52.362;6.588;2023-02-21T00:49:21;101899.31;;;10.63;80.53
76766;BME280;65707;52.362;6.588;2023-02-21T00:52:06;101881.94;;;10.57;80.54
76766;BME280;65707;52.362;6.588;2023-02-21T00:54:50;101896.91;;;10.60;80.51
76766;BME280;65707;52.362;6.588;2023-02-21T00:57:34;101896.06;;;10.59;80.74
76766;BME280;65707;52.362;6.588;2023-02-21T01:00:21;101892.53;;;10.59;81.04
76766;BME280;65707;52.362;6.588;2023-02-21T01:03:08;101887.28;;;10.57;80.48
76766;BME280;65707;52.362;6.588;2023-02-21T01:05:53;101885.75;;;10.55;80.85
76766;BME280;65707;52.362;6.588;2023-02-21T01:08:40;101885.63;;;10.47;81.30
76766;BME280;65707;52.362;6.588;2023-02-21T01:11:25;101886.75;;;10.54;80.98
76766;BME280;65707;52.362;6.588;2023-02-21T01:14:09;101885.34;;;10.50;80.95
76766;BME280;65707;52.362;6.588;2023-02-21T01:16:54;101880.81;;;10.60;81.09
76766;BME280;65707;52.362;6.588;2023-02-21T01:19:40;101884.75;;;10.65;80.59
76766;BME280;65707;52.362;6.588;2023-02-21T01:22:26;101882.06;;;10.56;81.38
76766;BME280;65707;52.362;6.588;2023-02-21T01:25:11;101890.69;;;10.59;81.10
76766;BME280;65707;52.362;6.588;2023-02-21T01:27:55;101865.44;;;10.52;80.64
76766;BME280;65707;52.362;6.588;2023-02-21T01:30:40;101885.59;;;10.66;80.93
76766;BME280;65707;52.362;6.588;2023-02-21T01:33:24;101878.56;;;10.65;80.61
76766;BME280;65707;52.362;6.588;2023-02-21T01:36:10;101881.91;;;10.67;80.51
76766;BME280;65707;52.362;6.588;2023-02-21T01:38:55;101881.94;;;10.57;80.54
76766;BME280;65707;52.362;6.588;2023-02-21T01:41:39;101881.38;;;10.54;81.17
76766;BME280;65707;52.362;6.588;2023-02-21T01:44:31;101883.06;;;10.64;81.30
76766;BME280;65707;52.362;6.588;2023-02-21T01:47:18;101888.44;;;10.64;81.13
76766;BME280;65707;52.362;6.588;2023-02-21T01:50:07;101880.09;;;10.58;81.15
76766;BME280;65707;52.362;6.588;2023-02-21T01:52:57;101889.53;;;10.62;80.71
76766;BME280;65707;52.362;6.588;2023-02-21T01:55:43;101879.97;;;10.59;80.55
76766;BME280;65707;52.362;6.588;2023-02-21T01:58:29;101878.41;;;10.57;81.54
76766;BME280;65707;52.362;6.588;2023-02-21T02:01:22;101877.41;;;10.58;81.18
76766;BME280;65707;52.362;6.588;2023-02-21T02:04:14;101878.56;;;10.65;81.11
76766;BME280;65707;52.362;6.588;2023-02-21T02:06:59;101877.69;;;10.64;80.83
76766;BME280;65707;52.362;6.588;2023-02-21T02:09:45;101873.28;;;10.73;80.43
76766;BME280;65707;52.362;6.588;2023-02-21T02:12:51;101873.56;;;10.70;80.27
76766;BME280;65707;52.362;6.588;2023-02-21T02:15:41;101869.38;;;10.58;81.33
76766;BME280;65707;52.362;6.588;2023-02-21T02:18:38;101879.25;;;10.57;81.05
76766;BME280;65707;52.362;6.588;2023-02-21T02:21:43;101867.97;;;10.54;81.04
76766;BME280;65707;52.362;6.588;2023-02-21T02:24:38;101860.88;;;10.53;81.55
76766;BME280;65707;52.362;6.588;2023-02-21T02:27:40;101864.88;;;10.49;81.26
76766;BME280;65707;52.362;6.588;2023-02-21T02:30:43;101859.91;;;10.54;80.92
76766;BME280;65707;52.362;6.588;2023-02-21T02:36:49;101864.72;;;10.60;80.93
76766;BME280;65707;52.362;6.588;2023-02-21T02:39:26;101859.91;;;10.54;80.96
76766;BME280;65707;52.362;6.588;2023-02-21T02:42:06;101859.34;;;10.60;81.52
76766;BME280;65707;52.362;6.588;2023-02-21T02:44:46;101868.81;;;10.45;81.54
76766;BME280;65707;52.362;6.588;2023-02-21T02:47:23;101865.69;;;10.49;81.72
76766;BME280;65707;52.362;6.588;2023-02-21T02:49:56;101868.13;;;10.52;81.29
76766;BME280;65707;52.362;6.588;2023-02-21T02:52:26;101876.41;;;10.59;81.18
76766;BME280;65707;52.362;6.588;2023-02-21T02:54:59;101867.69;;;10.57;81.32
76766;BME280;65707;52.362;6.588;2023-02-21T02:57:31;101864.56;;;10.52;81.67
76766;BME280;65707;52.362;6.588;2023-02-21T03:00:06;101867.13;;;10.53;81.73
76766;BME280;65707;52.362;6.588;2023-02-21T03:02:44;101863.28;;;10.56;81.08
76766;BME280;65707;52.362;6.588;2023-02-21T03:05:33;101850.44;;;10.59;81.32
76766;BME280;65707;52.362;6.588;2023-02-21T03:08:13;101857.09;;;10.65;81.48
76766;BME280;65707;52.362;6.588;2023-02-21T03:10:57;101863.41;;;10.64;81.21
76766;BME280;65707;52.362;6.588;2023-02-21T03:13:39;101862.59;;;10.54;81.89
76766;BME280;65707;52.362;6.588;2023-02-21T03:16:15;101864.28;;;10.55;81.50
76766;BME280;65707;52.362;6.588;2023-02-21T03:18:47;101866.97;;;10.64;81.25
76766;BME280;65707;52.362;6.588;2023-02-21T03:21:20;101875.88;;;10.55;81.22
76766;BME280;65707;52.362;6.588;2023-02-21T03:23:53;101872.47;;;10.63;81.11
76766;BME280;65707;52.362;6.588;2023-02-21T03:26:26;101871.75;;;10.61;81.11
76766;BME280;65707;52.362;6.588;2023-02-21T03:28:58;101872.47;;;10.63;81.60
76766;BME280;65707;52.362;6.588;2023-02-21T03:31:30;101868.06;;;10.62;81.44
76766;BME280;65707;52.362;6.588;2023-02-21T03:34:03;101867.84;;;10.46;81.81
76766;BME280;65707;52.362;6.588;2023-02-21T03:36:31;101881.94;;;10.57;81.33
76766;BME280;65707;52.362;6.588;2023-02-21T03:38:58;101873.72;;;10.68;81.54
76766;BME280;65707;52.362;6.588;2023-02-21T03:41:25;101875.28;;;10.71;80.77
76766;BME280;65707;52.362;6.588;2023-02-21T03:43:52;101887.00;;;10.70;81.45
76766;BME280;65707;52.362;6.588;2023-02-21T03:46:19;101884.59;;;10.76;80.97
76766;BME280;65707;52.362;6.588;2023-02-21T03:48:46;101885.72;;;10.74;80.83
76766;BME280;65707;52.362;6.588;2023-02-21T03:51:13;101889.38;;;10.73;81.18
76766;BME280;65707;52.362;6.588;2023-02-21T03:53:42;101883.31;;;10.80;80.79
76766;BME280;65707;52.362;6.588;2023-02-21T03:56:08;101871.59;;;10.72;80.80
76766;BME280;65707;52.362;6.588;2023-02-21T03:58:35;101882.19;;;10.73;80.61
76766;BME280;65707;52.362;6.588;2023-02-21T04:01:02;101893.94;;;10.63;81.55
76766;BME280;65707;52.362;6.588;2023-02-21T04:03:29;101887.00;;;10.70;81.33
76766;BME280;65707;52.362;6.588;2023-02-21T04:05:56;101878.56;;;10.65;81.28
76766;BME280;65707;52.362;6.588;2023-02-21T04:08:23;101887.56;;;10.73;81.54
76766;BME280;65707;52.362;6.588;2023-02-21T04:10:51;101890.69;;;10.69;81.31
76766;BME280;65707;52.362;6.588;2023-02-21T04:13:18;101891.25;;;10.63;81.02
76766;BME280;65707;52.362;6.588;2023-02-21T04:15:47;101897.06;;;10.68;80.90
76766;BME280;65707;52.362;6.588;2023-02-21T04:18:16;101894.91;;;10.71;80.75
76766;BME280;65707;52.362;6.588;2023-02-21T04:20:43;101898.88;;;10.67;80.83
76766;BME280;65707;52.362;6.588;2023-02-21T04:23:11;101889.81;;;10.68;81.13
76766;BME280;65707;52.362;6.588;2023-02-21T04:25:37;101894.22;;;10.69;81.73
76766;BME280;65707;52.362;6.588;2023-02-21T04:28:06;101898.00;;;10.76;80.73
76766;BME280;65707;52.362;6.588;2023-02-21T04:30:32;101892.13;;;10.63;81.84
76766;BME280;65707;52.362;6.588;2023-02-21T04:32:59;101887.13;;;10.68;81.02
76766;BME280;65707;52.362;6.588;2023-02-21T04:35:27;101896.19;;;10.77;81.12
76766;BME280;65707;52.362;6.588;2023-02-21T04:37:54;101895.31;;;10.76;81.19
76766;BME280;65707;52.362;6.588;2023-02-21T04:40:21;101893.50;;;10.67;81.17
76766;BME280;65707;52.362;6.588;2023-02-21T04:42:51;101890.09;;;10.75;80.76
76766;BME280;65707;52.362;6.588;2023-02-21T04:45:19;101891.56;;;10.60;81.53
76766;BME280;65707;52.362;6.588;2023-02-21T04:47:46;101893.94;;;10.63;81.32
76766;BME280;65707;52.362;6.588;2023-02-21T04:50:13;101884.31;;;10.60;81.46
76766;BME280;65707;52.362;6.588;2023-02-21T04:52:39;101889.97;;;10.67;81.39
76766;BME280;65707;52.362;6.588;2023-02-21T04:55:07;101889.00;;;10.68;81.23
76766;BME280;65707;52.362;6.588;2023-02-21T04:57:34;101888.16;;;10.67;81.36
76766;BME280;65707;52.362;6.588;2023-02-21T05:00:01;101886.47;;;10.57;81.99
76766;BME280;65707;52.362;6.588;2023-02-21T05:02:33;101881.94;;;10.48;82.83
76766;BME280;65707;52.362;6.588;2023-02-21T05:05:00;101887.59;;;10.45;83.38
76766;BME280;65707;52.362;6.588;2023-02-21T05:07:27;101885.63;;;10.37;83.80
76766;BME280;65707;52.362;6.588;2023-02-21T05:09:54;101878.00;;;10.33;83.63
76766;BME280;65707;52.362;6.588;2023-02-21T05:12:21;101879.41;;;10.37;83.90
76766;BME280;65707;52.362;6.588;2023-02-21T05:14:48;101865.31;;;10.35;83.57
76766;BME280;65707;52.362;6.588;2023-02-21T05:17:15;101878.28;;;10.39;84.26
76766;BME280;65707;52.362;6.588;2023-02-21T05:19:45;101869.81;;;10.34;83.67
76766;BME280;65707;52.362;6.588;2023-02-21T05:22:12;101881.25;;;10.36;83.92
76766;BME280;65707;52.362;6.588;2023-02-21T05:24:41;101876.03;;;10.44;84.05
76766;BME280;65707;52.362;6.588;2023-02-21T05:27:07;101879.81;;;10.42;83.69
76766;BME280;65707;52.362;6.588;2023-02-21T05:29:35;101881.13;;;10.38;84.41
76766;BME280;65707;52.362;6.588;2023-02-21T05:32:03;101879.69;;;10.34;84.96
76766;BME280;65707;52.362;6.588;2023-02-21T05:34:29;101881.97;;;10.29;85.06
76766;BME280;65707;52.362;6.588;2023-02-21T05:36:58;101878.84;;;10.24;84.60
76766;BME280;65707;52.362;6.588;2023-02-21T05:39:25;101877.72;;;10.26;84.72
76766;BME280;65707;52.362;6.588;2023-02-21T05:41:51;101870.09;;;10.22;85.02
76766;BME280;65707;52.362;6.588;2023-02-21T05:44:19;101883.22;;;10.25;84.78
76766;BME280;65707;52.362;6.588;2023-02-21T05:46:46;101876.75;;;10.27;85.02
76766;BME280;65707;52.362;6.588;2023-02-21T05:49:13;101878.00;;;10.23;85.62
76766;BME280;65707;52.362;6.588;2023-02-21T05:51:42;101877.84;;;10.15;85.48
76766;BME280;65707;52.362;6.588;2023-02-21T05:54:15;101881.09;;;10.19;85.46
76766;BME280;65707;52.362;6.588;2023-02-21T05:56:46;101878.56;;;10.08;86.03
76766;BME280;65707;52.362;6.588;2023-02-21T05:59:15;101876.31;;;10.13;85.77
76766;BME280;65707;52.362;6.588;2023-02-21T06:01:44;101884.78;;;10.18;85.83
76766;BME280;65707;52.362;6.588;2023-02-21T06:04:10;101876.03;;;10.16;85.24
76766;BME280;65707;52.362;6.588;2023-02-21T06:06:37;101873.91;;;10.19;85.59
76766;BME280;65707;52.362;6.588;2023-02-21T06:09:05;101861.03;;;10.04;86.18
76766;BME280;65707;52.362;6.588;2023-02-21T06:11:35;101876.44;;;10.11;85.72
76766;BME280;65707;52.362;6.588;2023-02-21T06:14:06;101872.63;;;10.14;85.81
76766;BME280;65707;52.362;6.588;2023-02-21T06:16:38;101870.81;;;10.14;85.86
76766;BME280;65707;52.362;6.588;2023-02-21T06:19:06;101867.84;;;10.08;85.82
76766;BME280;65707;52.362;6.588;2023-02-21T06:21:35;101873.34;;;10.16;85.69
76766;BME280;65707;52.362;6.588;2023-02-21T06:24:03;101873.50;;;10.14;86.06
76766;BME280;65707;52.362;6.588;2023-02-21T06:26:30;101868.41;;;10.11;85.57
76766;BME280;65707;52.362;6.588;2023-02-21T06:28:58;101861.31;;;10.10;85.86
76766;BME280;65707;52.362;6.588;2023-02-21T06:31:25;101872.06;;;10.10;85.54
76766;BME280;65707;52.362;6.588;2023-02-21T06:33:52;101877.72;;;10.17;85.89
76766;BME280;65707;52.362;6.588;2023-02-21T06:36:22;101872.44;;;10.06;86.32
76766;BME280;65707;52.362;6.588;2023-02-21T06:38:52;101862.44;;;9.98;85.96
76766;BME280;65707;52.362;6.588;2023-02-21T06:41:22;101880.53;;;10.15;85.91
76766;BME280;65707;52.362;6.588;2023-02-21T06:43:50;101878.56;;;10.17;85.69
76766;BME280;65707;52.362;6.588;2023-02-21T06:46:21;101875.31;;;10.14;85.92
76766;BME280;65707;52.362;6.588;2023-02-21T06:48:49;101878.28;;;10.11;86.21
76766;BME280;65707;52.362;6.588;2023-02-21T06:51:17;101876.03;;;10.16;85.65
76766;BME280;65707;52.362;6.588;2023-02-21T06:53:47;101875.47;;;10.22;85.06
76766;BME280;65707;52.362;6.588;2023-02-21T06:56:15;101869.53;;;10.18;85.34
76766;BME280;65707;52.362;6.588;2023-02-21T06:58:43;101863.59;;;10.15;84.70
76766;BME280;65707;52.362;6.588;2023-02-21T07:01:10;101884.22;;;10.24;85.04
76766;BME280;65707;52.362;6.588;2023-02-21T07:03:39;101880.53;;;10.25;84.72
76766;BME280;65707;52.362;6.588;2023-02-21T07:06:08;101878.72;;;10.25;85.20
76766;BME280;65707;52.362;6.588;2023-02-21T07:08:35;101882.38;;;10.34;84.66
76766;BME280;65707;52.362;6.588;2023-02-21T07:11:02;101878.13;;;10.22;85.37
76766;BME280;65707;52.362;6.588;2023-02-21T07:13:29;101884.91;;;10.26;84.87
76766;BME280;65707;52.362;6.588;2023-02-21T07:15:57;101893.09;;;10.24;85.43
76766;BME280;65707;52.362;6.588;2023-02-21T07:18:23;101884.66;;;10.19;84.98
76766;BME280;65707;52.362;6.588;2023-02-21T07:20:52;101870.53;;;10.27;85.08
76766;BME280;65707;52.362;6.588;2023-02-21T07:23:19;101878.72;;;10.25;84.98
76766;BME280;65707;52.362;6.588;2023-02-21T07:25:46;101876.31;;;10.22;84.79
76766;BME280;65707;52.362;6.588;2023-02-21T07:28:13;101886.47;;;10.28;85.17
76766;BME280;65707;52.362;6.588;2023-02-21T07:30:39;101885.91;;;10.15;85.28
76766;BME280;65707;52.362;6.588;2023-02-21T07:33:06;101888.72;;;10.23;85.71
76766;BME280;65707;52.362;6.588;2023-02-21T07:35:33;101895.75;;;10.15;85.72
76766;BME280;65707;52.362;6.588;2023-02-21T07:38:01;101898.59;;;10.23;85.02
76766;BME280;65707;52.362;6.588;2023-02-21T07:40:28;101898.59;;;10.23;84.57
76766;BME280;65707;52.362;6.588;2023-02-21T07:42:55;101905.09;;;10.20;85.62
76766;BME280;65707;52.362;6.588;2023-02-21T07:45:22;101905.25;;;10.19;85.81
76766;BME280;65707;52.362;6.588;2023-02-21T07:47:48;101894.94;;;10.24;85.18
76766;BME280;65707;52.362;6.588;2023-02-21T07:50:18;101903.69;;;10.35;84.41
76766;BME280;65707;52.362;6.588;2023-02-21T07:52:47;101907.06;;;10.28;85.20
76766;BME280;65707;52.362;6.588;2023-02-21T07:55:16;101906.50;;;10.34;85.06
76766;BME280;65707;52.362;6.588;2023-02-21T07:57:43;101907.09;;;10.37;84.58
76766;BME280;65707;52.362;6.588;2023-02-21T08:00:12;101908.91;;;10.37;84.91
76766;BME280;65707;52.362;6.588;2023-02-21T08:02:39;101903.44;;;10.29;84.31
76766;BME280;65707;52.362;6.588;2023-02-21T08:05:07;101909.78;;;10.37;84.34
76766;BME280;65707;52.362;6.588;2023-02-21T08:07:36;101900.47;;;10.32;84.26
76766;BME280;65707;52.362;6.588;2023-02-21T08:10:03;101909.63;;;10.39;84.19
76766;BME280;65707;52.362;6.588;2023-02-21T08:12:32;101906.66;;;10.42;83.96
76766;BME280;65707;52.362;6.588;2023-02-21T08:14:59;101908.91;;;10.37;83.95
76766;BME280;65707;52.362;6.588;2023-02-21T08:17:26;101904.13;;;10.31;84.34
76766;BME280;65707;52.362;6.588;2023-02-21T08:19:52;101914.03;;;10.40;84.40
76766;BME280;65707;52.362;6.588;2023-02-21T08:22:19;101912.44;;;10.37;84.03
76766;BME280;65707;52.362;6.588;2023-02-21T08:24:48;101913.03;;;10.41;84.22
76766;BME280;65707;52.362;6.588;2023-02-21T08:27:16;101920.06;;;10.42;84.19
76766;BME280;65707;52.362;6.588;2023-02-21T08:29:48;101911.88;;;10.34;84.85
76766;BME280;65707;52.362;6.588;2023-02-21T08:32:15;101910.78;;;10.46;84.96
76766;BME280;65707;52.362;6.588;2023-02-21T08:34:43;101914.41;;;10.45;84.23
76766;BME280;65707;52.362;6.588;2023-02-21T08:37:10;101919.09;;;10.43;84.68
76766;BME280;65707;52.362;6.588;2023-02-21T08:39:43;101917.09;;;10.64;83.65
76766;BME280;65707;52.362;6.588;2023-02-21T08:42:10;101917.66;;;10.67;83.60
76766;BME280;65707;52.362;6.588;2023-02-21T08:44:37;101917.25;;;10.53;83.28
76766;BME280;65707;52.362;6.588;2023-02-21T08:47:06;101911.06;;;10.52;83.67
76766;BME280;65707;52.362;6.588;2023-02-21T08:49:32;101907.94;;;10.66;83.36
76766;BME280;65707;52.362;6.588;2023-02-21T08:52:04;101913.59;;;10.63;83.19
76766;BME280;65707;52.362;6.588;2023-02-21T08:54:31;101908.75;;;10.67;83.69
76766;BME280;65707;52.362;6.588;2023-02-21T08:56:58;101901.72;;;10.56;83.97
76766;BME280;65707;52.362;6.588;2023-02-21T08:59:25;101903.53;;;10.56;83.42
76766;BME280;65707;52.362;6.588;2023-02-21T09:01:54;101891.41;;;10.61;83.40
76766;BME280;65707;52.362;6.588;2023-02-21T09:04:22;101903.09;;;10.70;82.59
76766;BME280;65707;52.362;6.588;2023-02-21T09:06:51;101902.97;;;10.71;82.88
76766;BME280;65707;52.362;6.588;2023-02-21T09:09:18;101907.63;;;10.79;83.20
76766;BME280;65707;52.362;6.588;2023-02-21T09:11:45;101908.59;;;10.87;82.35
76766;BME280;65707;52.362;6.588;2023-02-21T09:14:14;101900.84;;;10.75;82.35
76766;BME280;65707;52.362;6.588;2023-02-21T09:16:41;101911.28;;;10.78;82.69
76766;BME280;65707;52.362;6.588;2023-02-21T09:19:09;101909.31;;;10.80;83.33
76766;BME280;65707;52.362;6.588;2023-02-21T09:21:44;101907.63;;;10.88;82.66
76766;BME280;65707;52.362;6.588;2023-02-21T09:24:12;101897.00;;;10.87;82.01
76766;BME280;65707;52.362;6.588;2023-02-21T09:26:39;101898.84;;;10.86;81.95
76766;BME280;65707;52.362;6.588;2023-02-21T09:29:06;101903.38;;;10.76;81.92
76766;BME280;65707;52.362;6.588;2023-02-21T09:31:36;101906.38;;;10.64;82.64
76766;BME280;65707;52.362;6.588;2023-02-21T09:34:03;101908.19;;;10.73;83.20
76766;BME280;65707;52.362;6.588;2023-02-21T09:36:29;101903.38;;;10.86;82.16
76766;BME280;65707;52.362;6.588;2023-02-21T09:38:58;101905.34;;;10.84;81.95
76766;BME280;65707;52.362;6.588;2023-02-21T09:41:24;101895.72;;;10.91;82.05
76766;BME280;65707;52.362;6.588;2023-02-21T09:43:52;101897.72;;;10.79;82.50
76766;BME280;65707;52.362;6.588;2023-02-21T09:46:27;101904.72;;;11.09;81.17
76766;BME280;65707;52.362;6.588;2023-02-21T09:49:00;101901.66;;;11.04;81.63
76766;BME280;65707;52.362;6.588;2023-02-21T09:51:29;101897.84;;;10.97;82.35
76766;BME280;65707;52.362;6.588;2023-02-21T09:54:00;101896.28;;;11.04;81.67
76766;BME280;65707;52.362;6.588;2023-02-21T09:56:34;101896.41;;;11.03;81.36
76766;BME280;65707;52.362;6.588;2023-02-21T09:59:09;101899.63;;;11.06;81.73
76766;BME280;65707;52.362;6.588;2023-02-21T10:01:48;101894.97;;;11.08;81.38
76766;BME280;65707;52.362;6.588;2023-02-21T10:04:30;101893.00;;;11.10;81.27
76766;BME280;65707;52.362;6.588;2023-02-21T10:07:20;101901.31;;;11.17;80.80
76766;BME280;65707;52.362;6.588;2023-02-21T10:09:55;101897.25;;;11.03;81.45
76766;BME280;65707;52.362;6.588;2023-02-21T10:12:30;101892.59;;;11.05;81.64
76766;BME280;65707;52.362;6.588;2023-02-21T10:15:22;101901.31;;;11.17;80.85
76766;BME280;65707;52.362;6.588;2023-02-21T10:18:05;101900.16;;;11.19;80.71
76766;BME280;65707;52.362;6.588;2023-02-21T10:20:44;101901.13;;;11.28;80.27
76766;BME280;65707;52.362;6.588;2023-02-21T10:23:16;101903.56;;;11.21;80.55
76766;BME280;65707;52.362;6.588;2023-02-21T10:25:51;101904.28;;;11.23;81.18
76766;BME280;65707;52.362;6.588;2023-02-21T10:28:22;101894.19;;;11.25;80.41
76766;BME280;65707;52.362;6.588;2023-02-21T10:30:53;101897.59;;;11.27;80.31
76766;BME280;65707;52.362;6.588;2023-02-21T10:33:24;101899.88;;;11.22;80.92
76766;BME280;65707;52.362;6.588;2023-02-21T10:35:51;101907.63;;;11.25;80.34
76766;BME280;65707;52.362;6.588;2023-02-21T10:38:23;101913.13;;;11.33;80.52
76766;BME280;65707;52.362;6.588;2023-02-21T10:40:55;101913.28;;;11.32;80.12
76766;BME280;65707;52.362;6.588;2023-02-21T10:43:29;101911.47;;;11.23;79.84
76766;BME280;65707;52.362;6.588;2023-02-21T10:46:04;101915.88;;;11.14;80.49
76766;BME280;65707;52.362;6.588;2023-02-21T10:48:41;101919.72;;;11.12;81.04
76766;BME280;65707;52.362;6.588;2023-02-21T10:51:11;101915.03;;;11.23;80.63
76766;BME280;65707;52.362;6.588;2023-02-21T10:53:39;101926.19;;;11.19;80.80
76766;BME280;65707;52.362;6.588;2023-02-21T10:56:24;101923.06;;;11.23;80.03
76766;BME280;65707;52.362;6.588;2023-02-21T10:58:55;101912.03;;;11.26;80.51
76766;BME280;65707;52.362;6.588;2023-02-21T11:01:34;101923.47;;;11.28;80.18
76766;BME280;65707;52.362;6.588;2023-02-21T11:04:05;101918.25;;;11.27;80.53
76766;BME280;65707;52.362;6.588;2023-02-21T11:06:49;101925.38;;;11.45;79.63
76766;BME280;65707;52.362;6.588;2023-02-21T11:09:29;101920.56;;;11.49;79.67
76766;BME280;65707;52.362;6.588;2023-02-21T11:12:03;101920.84;;;11.46;79.57
76766;BME280;65707;52.362;6.588;2023-02-21T11:14:33;101918.13;;;11.55;79.59
76766;BME280;65707;52.362;6.588;2023-02-21T11:17:15;101910.78;;;11.57;78.90
76766;BME280;65707;52.362;6.588;2023-02-21T11:19:46;101924.66;;;11.53;79.51
76766;BME280;65707;52.362;6.588;2023-02-21T11:22:16;101919.03;;;11.46;79.76
76766;BME280;65707;52.362;6.588;2023-02-21T11:24:59;101918.13;;;11.55;79.45
76766;BME280;65707;52.362;6.588;2023-02-21T11:27:32;101899.50;;;11.44;79.42
76766;BME280;65707;52.362;6.588;2023-02-21T11:30:03;101909.34;;;11.53;79.60
76766;BME280;65707;52.362;6.588;2023-02-21T11:32:41;101907.97;;;11.49;79.63
76766;BME280;65707;52.362;6.588;2023-02-21T11:35:22;101906.81;;;11.52;79.37
76766;BME280;65707;52.362;6.588;2023-02-21T11:37:53;101909.66;;;11.50;79.96
76766;BME280;65707;52.362;6.588;2023-02-21T11:40:33;101901.53;;;11.60;79.26
76766;BME280;65707;52.362;6.588;2023-02-21T11:43:18;101903.59;;;11.48;79.52
76766;BME280;65707;52.362;6.588;2023-02-21T11:48:51;101898.09;;;11.50;79.87
76766;BME280;65707;52.362;6.588;2023-02-21T11:51:33;101891.69;;;11.51;80.41
76766;BME280;65707;52.362;6.588;2023-02-21T11:54:04;101898.03;;;11.59;80.16
76766;BME280;65707;52.362;6.588;2023-02-21T11:56:43;101900.38;;;11.45;80.41
76766;BME280;65707;52.362;6.588;2023-02-21T11:59:33;101897.97;;;11.42;80.56
76766;BME280;65707;52.362;6.588;2023-02-21T12:05:48;101893.53;;;11.23;81.45
76766;BME280;65707;52.362;6.588;2023-02-21T12:08:34;101894.19;;;11.25;82.11
76766;BME280;65707;52.362;6.588;2023-02-21T12:11:22;101891.38;;;11.27;81.12
76766;BME280;65707;52.362;6.588;2023-02-21T12:14:17;101892.06;;;11.29;81.11
76766;BME280;65707;52.362;6.588;2023-02-21T12:17:07;101888.28;;;11.22;80.88
76766;BME280;65707;52.362;6.588;2023-02-21T12:20:02;101882.66;;;11.15;81.53
76766;BME280;65707;52.362;6.588;2023-02-21T12:23:00;101882.09;;;11.12;81.35
76766;BME280;65707;52.362;6.588;2023-02-21T12:25:43;101887.78;;;11.09;81.91
76766;BME280;65707;52.362;6.588;2023-02-21T12:28:23;101873.03;;;11.13;81.65
76766;BME280;65707;52.362;6.588;2023-02-21T12:31:10;101874.47;;;11.17;81.63
76766;BME280;65707;52.362;6.588;2023-02-21T12:33:55;101872.63;;;11.08;81.54
76766;BME280;65707;52.362;6.588;2023-02-21T12:36:44;101877.31;;;11.06;82.04
76766;BME280;65707;52.362;6.588;2023-02-21T12:39:37;101877.59;;;11.12;82.14
76766;BME280;65707;52.362;6.588;2023-02-21T12:42:27;101858.91;;;11.11;82.07
76766;BME280;65707;52.362;6.588;2023-02-21T12:45:18;101870.81;;;11.08;82.26
76766;BME280;65707;52.362;6.588;2023-02-21T12:48:02;101860.34;;;11.05;82.62
76766;BME280;65707;52.362;6.588;2023-02-21T12:50:39;101854.41;;;11.02;82.02
76766;BME280;65707;52.362;6.588;2023-02-21T12:53:12;101853.81;;;11.08;82.34
76766;BME280;65707;52.362;6.588;2023-02-21T12:55:46;101864.69;;;11.16;82.49
76766;BME280;65707;52.362;6.588;2023-02-21T12:58:21;101861.47;;;11.12;82.10
76766;BME280;65707;52.362;6.588;2023-02-21T13:00:54;101860.94;;;10.99;82.96
76766;BME280;65707;52.362;6.588;2023-02-21T13:03:35;101859.50;;;11.05;82.59
76766;BME280;65707;52.362;6.588;2023-02-21T13:06:17;101849.91;;;11.02;82.78
76766;BME280;65707;52.362;6.588;2023-02-21T13:08:55;101845.94;;;10.96;83.00
76766;BME280;65707;52.362;6.588;2023-02-21T13:11:35;101857.97;;;11.02;82.81
76766;BME280;65707;52.362;6.588;2023-02-21T13:14:08;101852.59;;;11.02;83.05
76766;BME280;65707;52.362;6.588;2023-02-21T13:16:38;101856.59;;;10.88;83.06
76766;BME280;65707;52.362;6.588;2023-02-21T13:19:07;101846.81;;;10.97;82.56
76766;BME280;65707;52.362;6.588;2023-02-21T13:21:48;101848.47;;;10.98;82.73
76766;BME280;65707;52.362;6.588;2023-02-21T13:24:37;101843.53;;;11.03;82.58
76766;BME280;65707;52.362;6.588;2023-02-21T13:27:34;101833.19;;;11.08;82.79
76766;BME280;65707;52.362;6.588;2023-02-21T13:30:21;101826.59;;;11.03;82.57
76766;BME280;65707;52.362;6.588;2023-02-21T13:32:53;101831.81;;;11.04;82.77
76766;BME280;65707;52.362;6.588;2023-02-21T13:35:28;101827.38;;;11.13;82.72
76766;BME280;65707;52.362;6.588;2023-02-21T13:37:59;101816.19;;;11.17;82.54
76766;BME280;65707;52.362;6.588;2023-02-21T13:40:34;101814.75;;;11.23;81.89